createdAt,value
2016-05-17T00:00:13.453Z,6.67
2016-05-17T00:01:13.597Z,6.71
2016-05-17T00:02:13.600Z,6.66
2016-05-17T00:03:13.586Z,6.67
2016-05-17T00:04:13.589Z,6.71
2016-05-17T00:05:13.591Z,6.69
2016-05-17T00:06:13.578Z,6.69
2016-05-17T00:07:13.425Z,6.74
2016-05-17T00:08:13.568Z,6.67
2016-05-17T00:09:13.555Z,6.69
2016-05-17T00:10:13.386Z,6.69
2016-05-17T00:11:13.530Z,6.79
2016-05-17T00:12:13.533Z,6.66
2016-05-17T00:13:13.535Z,6.73
2016-05-17T00:14:13.538Z,6.69
2016-05-17T00:15:13.509Z,6.76
2016-05-17T00:16:13.340Z,6.79
2016-05-17T00:17:13.483Z,6.8
2016-05-17T00:18:13.485Z,6.84
2016-05-17T00:19:13.505Z,6.79
2016-05-17T00:20:13.476Z,6.79
2016-05-17T00:21:13.463Z,6.81
2016-05-17T00:22:13.529Z,6.77
2016-05-17T00:23:13.452Z,6.88
2016-05-17T00:24:13.440Z,6.85
2016-05-17T00:25:13.442Z,6.84
2016-05-17T00:26:13.273Z,6.91
2016-05-17T00:27:13.276Z,6.84
2016-05-17T00:28:13.404Z,6.84
2016-05-17T00:29:13.406Z,6.79
2016-05-17T00:30:13.237Z,6.79
2016-05-17T00:31:13.395Z,6.79
2016-05-17T00:32:13.399Z,6.76
2016-05-17T00:33:13.073Z,6.73
2016-05-17T00:34:13.372Z,6.71
2016-05-17T00:35:13.203Z,6.74
2016-05-17T00:36:13.362Z,6.69
2016-05-17T00:37:14.147Z,6.66
2016-05-17T00:38:13.181Z,6.64
2016-05-17T00:39:13.324Z,6.69
2016-05-17T00:40:13.170Z,6.62
2016-05-17T00:41:13.329Z,6.59
2016-05-17T00:42:13.316Z,6.64
2016-05-17T00:43:13.303Z,6.59
2016-05-17T00:44:13.306Z,6.59
2016-05-17T00:45:13.137Z,6.59
2016-05-17T00:46:13.280Z,6.58
2016-05-17T00:47:12.971Z,6.62
2016-05-17T00:48:13.270Z,6.54
2016-05-17T00:49:13.257Z,6.62
2016-05-17T00:50:13.274Z,6.52
2016-05-17T00:51:13.231Z,6.52
2016-05-17T00:52:14.187Z,6.59
2016-05-17T00:53:13.237Z,6.61
2016-05-17T00:54:13.067Z,6.58
2016-05-17T00:55:13.210Z,6.59
2016-05-17T00:56:13.432Z,6.61
2016-05-17T00:57:14.825Z,6.51
2016-05-17T00:58:13.343Z,6.55
2016-05-17T00:59:29.237Z,6.51
2016-05-17T01:00:13.787Z,6.54
2016-05-17T01:01:28.274Z,6.56
2016-05-17T01:02:13.636Z,6.61
2016-05-17T01:03:13.154Z,6.56
2016-05-17T01:04:13.344Z,6.58
2016-05-17T01:05:13.378Z,6.54
2016-05-17T01:06:13.130Z,6.52
2016-05-17T01:07:13.150Z,6.54
2016-05-17T01:08:13.620Z,6.54
2016-05-17T01:09:13.108Z,6.61
2016-05-17T01:10:13.111Z,6.58
2016-05-17T01:11:13.097Z,6.52
2016-05-17T01:12:13.084Z,6.52
2016-05-17T01:13:12.931Z,6.55
2016-05-17T01:14:13.074Z,6.54
2016-05-17T01:15:13.061Z,6.49
2016-05-17T01:16:13.080Z,6.51
2016-05-17T01:17:13.052Z,6.48
2016-05-17T01:18:13.038Z,6.52
2016-05-17T01:19:13.057Z,6.52
2016-05-17T01:20:13.044Z,6.59
2016-05-17T01:21:13.030Z,6.64
2016-05-17T01:22:12.877Z,6.66
2016-05-17T01:23:13.004Z,6.64
2016-05-17T01:24:12.851Z,6.66
2016-05-17T01:25:13.026Z,6.7
2016-05-17T01:26:12.982Z,6.79
2016-05-17T01:27:12.828Z,6.81
2016-05-17T01:28:12.971Z,6.88
2016-05-17T01:29:12.973Z,6.94
2016-05-17T01:30:12.804Z,6.8
2016-05-17T01:31:12.948Z,6.95
2016-05-17T01:32:12.950Z,6.98
2016-05-17T01:33:12.782Z,7.03
2016-05-17T01:34:12.925Z,7.09
2016-05-17T01:35:12.771Z,7.06
2016-05-17T01:36:12.931Z,7.1
2016-05-17T01:37:13.026Z,7.12
2016-05-17T01:38:12.904Z,7.21
2016-05-17T01:39:12.891Z,7.3
2016-05-17T01:40:12.894Z,7.3
2016-05-17T01:41:12.881Z,7.31
2016-05-17T01:42:12.884Z,7.42
2016-05-17T01:43:12.699Z,7.37
2016-05-17T01:44:12.858Z,7.45
2016-05-17T01:45:12.688Z,7.45
2016-05-17T01:46:12.847Z,7.58
2016-05-17T01:47:12.678Z,7.53
2016-05-17T01:48:12.821Z,7.52
2016-05-17T01:49:12.825Z,7.57
2016-05-17T01:50:12.827Z,7.52
2016-05-17T01:51:12.658Z,7.6
2016-05-17T01:52:12.817Z,7.58
2016-05-17T01:53:12.648Z,7.61
2016-05-17T01:54:12.807Z,7.77
2016-05-17T01:55:12.778Z,7.79
2016-05-17T01:56:12.781Z,7.71
2016-05-17T01:57:12.768Z,7.71
2016-05-17T01:58:12.771Z,7.77
2016-05-17T01:59:12.601Z,7.79
2016-05-17T02:00:12.745Z,7.82
2016-05-17T02:01:12.732Z,7.79
2016-05-17T02:02:12.734Z,7.8
2016-05-17T02:03:12.721Z,7.86
2016-05-17T02:04:12.723Z,7.89
2016-05-17T02:05:12.712Z,7.82
2016-05-17T02:06:12.558Z,7.92
2016-05-17T02:07:13.295Z,7.89
2016-05-17T02:09:12.691Z,7.97
2016-05-17T02:10:13.787Z,8.04
2016-05-17T02:11:12.665Z,8
2016-05-17T02:12:12.527Z,8.05
2016-05-17T02:13:12.670Z,8.04
2016-05-17T02:14:12.923Z,8.04
2016-05-17T02:15:13.003Z,8
2016-05-17T02:16:13.491Z,8.12
2016-05-17T02:17:12.634Z,8.02
2016-05-17T02:18:13.636Z,8.1
2016-05-17T02:19:14.203Z,8.07
2016-05-17T02:20:14.157Z,8.16
2016-05-17T02:21:12.863Z,8.12
2016-05-17T02:22:12.976Z,8.12
2016-05-17T02:23:12.588Z,8.15
2016-05-17T02:24:13.091Z,8.1
2016-05-17T02:25:13.843Z,8.26
2016-05-17T02:26:12.565Z,8.25
2016-05-17T02:27:13.161Z,8.34
2016-05-17T02:28:13.163Z,8.23
2016-05-17T02:29:12.698Z,8.28
2016-05-17T02:30:12.388Z,8.25
2016-05-17T02:31:12.547Z,8.29
2016-05-17T02:32:12.596Z,8.3
2016-05-17T02:33:12.381Z,8.29
2016-05-17T02:34:12.586Z,8.3
2016-05-17T02:35:12.557Z,8.37
2016-05-17T02:36:12.513Z,8.33
2016-05-17T02:37:12.532Z,8.36
2016-05-17T02:38:12.534Z,8.34
2016-05-17T02:39:12.475Z,8.3
2016-05-17T02:40:12.540Z,8.33
2016-05-17T02:41:12.589Z,8.4
2016-05-17T02:42:12.483Z,8.33
2016-05-17T02:43:12.469Z,8.34
2016-05-17T02:44:12.456Z,8.4
2016-05-17T02:45:12.459Z,8.37
2016-05-17T02:46:12.462Z,8.36
2016-05-17T02:47:12.294Z,8.3
2016-05-17T02:48:12.436Z,8.4
2016-05-17T02:49:12.438Z,8.34
2016-05-17T02:50:12.426Z,8.38
2016-05-17T02:51:12.414Z,8.34
2016-05-17T02:52:12.432Z,8.34
2016-05-17T02:53:12.403Z,8.44
2016-05-17T02:54:12.390Z,8.44
2016-05-17T02:55:12.393Z,8.41
2016-05-17T02:56:12.239Z,8.47
2016-05-17T02:57:12.382Z,8.48
2016-05-17T02:58:12.369Z,8.48
2016-05-17T02:59:12.357Z,8.38
2016-05-17T03:00:12.204Z,8.44
2016-05-17T03:01:12.346Z,8.43
2016-05-17T03:02:12.349Z,8.43
2016-05-17T03:03:12.336Z,8.4
2016-05-17T03:04:12.026Z,8.44
2016-05-17T03:05:12.326Z,8.47
2016-05-17T03:06:12.328Z,8.43
2016-05-17T03:07:12.315Z,8.48
2016-05-17T03:08:12.303Z,8.41
2016-05-17T03:09:12.305Z,8.45
2016-05-17T03:10:12.308Z,8.43
2016-05-17T03:11:12.295Z,8.47
2016-05-17T03:12:12.282Z,8.5
2016-05-17T03:13:12.284Z,8.45
2016-05-17T03:14:12.116Z,8.52
2016-05-17T03:15:12.118Z,8.52
2016-05-17T03:16:12.106Z,8.55
2016-05-17T03:17:12.264Z,8.59
2016-05-17T03:18:12.095Z,8.62
2016-05-17T03:19:12.239Z,8.61
2016-05-17T03:20:12.085Z,8.62
2016-05-17T03:21:12.227Z,8.56
2016-05-17T03:22:12.230Z,8.7
2016-05-17T03:23:12.218Z,8.65
2016-05-17T03:24:12.221Z,8.66
2016-05-17T03:25:12.207Z,8.7
2016-05-17T03:26:12.194Z,8.74
2016-05-17T03:27:12.979Z,8.66
2016-05-17T03:28:13.169Z,8.74
2016-05-17T03:29:12.015Z,8.7
2016-05-17T03:30:12.221Z,8.81
2016-05-17T03:31:12.176Z,8.76
2016-05-17T03:32:12.258Z,8.83
2016-05-17T03:33:12.168Z,8.79
2016-05-17T03:34:12.795Z,8.79
2016-05-17T03:35:12.907Z,8.77
2016-05-17T03:36:12.378Z,8.81
2016-05-17T03:37:12.256Z,8.74
2016-05-17T03:38:12.773Z,8.79
2016-05-17T03:39:13.840Z,8.77
2016-05-17T03:40:12.107Z,8.81
2016-05-17T03:41:12.376Z,8.77
2016-05-17T03:42:12.112Z,8.74
2016-05-17T03:43:12.256Z,8.77
2016-05-17T03:44:12.087Z,8.81
2016-05-17T03:45:12.839Z,8.84
2016-05-17T03:46:12.577Z,8.91
2016-05-17T03:47:12.219Z,8.8
2016-05-17T03:48:12.063Z,8.87
2016-05-17T03:49:12.067Z,8.98
2016-05-17T03:50:12.053Z,8.98
2016-05-17T03:51:12.040Z,8.91
2016-05-17T03:52:11.919Z,8.86
2016-05-17T03:53:12.046Z,8.94
2016-05-17T03:54:12.033Z,8.92
2016-05-17T03:55:12.019Z,8.89
2016-05-17T03:56:12.022Z,8.98
2016-05-17T03:57:12.025Z,8.95
2016-05-17T03:58:12.013Z,8.86
2016-05-17T03:59:11.999Z,8.92
2016-05-17T04:00:12.002Z,9.02
2016-05-17T04:01:11.990Z,8.96
2016-05-17T04:02:11.976Z,8.95
2016-05-17T04:03:11.979Z,8.99
2016-05-17T04:04:11.981Z,8.94
2016-05-17T04:05:11.969Z,8.87
2016-05-17T04:06:11.816Z,8.96
2016-05-17T04:07:12.037Z,8.96
2016-05-17T04:08:11.946Z,8.94
2016-05-17T04:09:11.792Z,9.05
2016-05-17T04:10:11.779Z,9.08
2016-05-17T04:11:11.781Z,9.11
2016-05-17T04:12:11.925Z,9.15
2016-05-17T04:13:11.928Z,9.17
2016-05-17T04:14:11.915Z,9.2
2016-05-17T04:15:11.917Z,9.14
2016-05-17T04:16:11.905Z,9.28
2016-05-17T04:17:11.908Z,9.35
2016-05-17T04:18:11.894Z,9.32
2016-05-17T04:19:11.741Z,9.43
2016-05-17T04:20:11.883Z,9.5
2016-05-17T04:21:11.872Z,9.46
2016-05-17T04:22:11.718Z,9.39
2016-05-17T04:23:11.861Z,9.46
2016-05-17T04:24:11.708Z,9.47
2016-05-17T04:25:11.710Z,9.61
2016-05-17T04:26:11.853Z,9.61
2016-05-17T04:27:11.855Z,9.65
2016-05-17T04:28:11.843Z,9.68
2016-05-17T04:29:11.846Z,9.72
2016-05-17T04:30:11.818Z,9.74
2016-05-17T04:31:11.835Z,9.72
2016-05-17T04:32:11.823Z,9.69
2016-05-17T04:33:11.810Z,9.74
2016-05-17T04:34:11.656Z,9.78
2016-05-17T04:35:11.659Z,9.79
2016-05-17T04:36:11.801Z,9.74
2016-05-17T04:37:11.649Z,9.79
2016-05-17T04:38:11.793Z,9.87
2016-05-17T04:39:11.779Z,9.83
2016-05-17T04:40:11.626Z,9.84
2016-05-17T04:41:11.612Z,10.01
2016-05-17T04:42:11.771Z,9.93
2016-05-17T04:43:11.758Z,10.02
2016-05-17T04:44:11.605Z,10.02
2016-05-17T04:45:11.748Z,9.99
2016-05-17T04:46:12.720Z,10.12
2016-05-17T04:48:11.741Z,10.11
2016-05-17T04:49:11.572Z,10.07
2016-05-17T04:50:12.542Z,10.02
2016-05-17T04:51:11.842Z,10.05
2016-05-17T04:52:12.344Z,10.08
2016-05-17T04:53:12.161Z,10.09
2016-05-17T04:54:11.711Z,10.09
2016-05-17T04:55:12.478Z,10.07
2016-05-17T04:56:13.700Z,10.17
2016-05-17T04:57:12.765Z,10.22
2016-05-17T04:58:11.689Z,10.2
2016-05-17T04:59:11.677Z,10.18
2016-05-17T05:00:11.679Z,10.2
2016-05-17T05:01:11.776Z,10.32
2016-05-17T05:02:25.688Z,10.32
2016-05-17T05:03:12.078Z,10.42
2016-05-17T05:05:12.412Z,10.47
2016-05-17T05:06:11.492Z,10.44
2016-05-17T05:07:11.854Z,10.47
2016-05-17T05:08:11.747Z,10.56
2016-05-17T05:09:11.781Z,10.53
2016-05-17T05:10:11.650Z,10.6
2016-05-17T05:11:11.695Z,10.61
2016-05-17T05:12:11.741Z,10.74
2016-05-17T05:13:11.614Z,10.78
2016-05-17T05:14:11.816Z,10.79
2016-05-17T05:15:11.832Z,10.86
2016-05-17T05:16:11.850Z,10.92
2016-05-17T05:17:11.885Z,10.89
2016-05-17T05:18:11.871Z,10.86
2016-05-17T05:19:11.890Z,10.97
2016-05-17T05:20:11.887Z,10.99
2016-05-17T05:21:11.723Z,10.88
2016-05-17T05:22:12.434Z,10.85
2016-05-17T05:23:11.739Z,10.88
2016-05-17T05:24:11.903Z,10.85
2016-05-17T05:25:11.722Z,10.86
2016-05-17T05:26:11.915Z,10.85
2016-05-17T05:27:11.888Z,10.71
2016-05-17T05:28:11.877Z,10.73
2016-05-17T05:29:11.725Z,10.76
2016-05-17T05:30:11.886Z,10.76
2016-05-17T05:31:11.873Z,10.89
2016-05-17T05:32:11.860Z,10.91
2016-05-17T05:33:11.864Z,11.03
2016-05-17T05:34:11.884Z,11.03
2016-05-17T05:35:11.855Z,11.04
2016-05-17T05:36:11.843Z,11.07
2016-05-17T05:37:11.862Z,11.11
2016-05-17T05:38:11.849Z,11.09
2016-05-17T05:39:11.852Z,11.04
2016-05-17T05:40:11.840Z,11.03
2016-05-17T05:41:11.842Z,11.02
2016-05-17T05:42:11.829Z,11.07
2016-05-17T05:43:11.676Z,11.1
2016-05-17T05:44:11.663Z,11.15
2016-05-17T05:45:11.821Z,11.24
2016-05-17T05:46:11.824Z,11.24
2016-05-17T05:47:11.812Z,11.25
2016-05-17T05:48:11.642Z,11.43
2016-05-17T05:49:11.646Z,11.44
2016-05-17T05:50:11.803Z,11.47
2016-05-17T05:51:11.634Z,11.55
2016-05-17T05:52:11.934Z,11.54
2016-05-17T05:53:11.796Z,11.55
2016-05-17T05:54:11.643Z,11.54
2016-05-17T05:55:11.771Z,11.52
2016-05-17T05:56:11.773Z,11.51
2016-05-17T05:57:11.620Z,11.67
2016-05-17T05:58:11.779Z,11.67
2016-05-17T05:59:11.453Z,11.69
2016-05-17T06:00:12.644Z,11.73
2016-05-17T06:01:11.756Z,11.82
2016-05-17T06:02:11.758Z,11.82
2016-05-17T06:03:11.745Z,11.98
2016-05-17T06:04:11.592Z,12.02
2016-05-17T06:05:11.844Z,12.1
2016-05-17T06:06:12.941Z,12.19
2016-05-17T06:07:13.005Z,12.13
2016-05-17T06:08:12.618Z,12.27
2016-05-17T06:09:11.730Z,12.34
2016-05-17T06:10:12.108Z,12.46
2016-05-17T06:11:12.001Z,12.46
2016-05-17T06:12:11.566Z,12.57
2016-05-17T06:13:12.787Z,12.62
2016-05-17T06:14:11.712Z,12.67
2016-05-17T06:15:11.715Z,12.71
2016-05-17T06:16:12.780Z,12.64
2016-05-17T06:17:11.704Z,12.72
2016-05-17T06:18:11.707Z,12.7
2016-05-17T06:19:12.491Z,12.74
2016-05-17T06:20:11.697Z,12.78
2016-05-17T06:21:25.874Z,12.89
2016-05-17T06:22:12.093Z,12.96
2016-05-17T06:23:12.392Z,12.97
2016-05-17T06:24:11.723Z,13.15
2016-05-17T06:25:11.992Z,13.15
2016-05-17T06:26:11.526Z,13.32
2016-05-17T06:27:11.685Z,13.52
2016-05-17T06:28:11.673Z,13.66
2016-05-17T06:29:11.674Z,13.78
2016-05-17T06:30:11.521Z,13.87
2016-05-17T06:31:11.523Z,14.07
2016-05-17T06:32:11.667Z,14.17
2016-05-17T06:33:11.670Z,14.27
2016-05-17T06:34:11.673Z,14.32
2016-05-17T06:35:11.675Z,14.46
2016-05-17T06:36:11.662Z,14.39
2016-05-17T06:37:11.900Z,14.39
2016-05-17T06:38:11.667Z,14.37
2016-05-17T06:39:11.670Z,14.51
2016-05-17T06:40:11.657Z,14.65
2016-05-17T06:41:11.660Z,14.65
2016-05-17T06:42:11.663Z,14.64
2016-05-17T06:43:11.650Z,14.78
2016-05-17T06:44:11.652Z,14.75
2016-05-17T06:45:11.671Z,14.8
2016-05-17T06:46:11.658Z,14.84
2016-05-17T06:47:11.504Z,14.84
2016-05-17T06:48:11.648Z,14.72
2016-05-17T06:49:11.650Z,14.75
2016-05-17T06:50:11.653Z,14.73
2016-05-17T06:51:11.640Z,14.72
2016-05-17T06:52:11.830Z,14.78
2016-05-17T06:53:11.645Z,14.77
2016-05-17T06:54:11.648Z,14.68
2016-05-17T06:55:11.651Z,14.7
2016-05-17T06:56:11.481Z,14.69
2016-05-17T06:57:11.640Z,14.64
2016-05-17T06:58:11.642Z,14.57
2016-05-17T06:59:11.646Z,14.51
2016-05-17T07:00:11.633Z,14.61
2016-05-17T07:01:11.495Z,14.58
2016-05-17T07:02:11.638Z,14.58
2016-05-17T07:03:11.641Z,14.54
2016-05-17T07:04:11.644Z,14.37
2016-05-17T07:05:11.630Z,14.47
2016-05-17T07:06:11.633Z,14.58
2016-05-17T07:07:11.667Z,14.55
2016-05-17T07:08:11.639Z,14.37
2016-05-17T07:09:11.641Z,14.54
2016-05-17T07:10:11.628Z,14.46
2016-05-17T07:11:11.630Z,14.27
2016-05-17T07:12:11.633Z,14.4
2016-05-17T07:13:11.636Z,14.27
2016-05-17T07:14:11.639Z,14.4
2016-05-17T07:15:11.626Z,14.24
2016-05-17T07:16:11.644Z,14.24
2016-05-17T07:17:11.632Z,14.4
2016-05-17T07:18:11.619Z,14.42
2016-05-17T07:19:11.621Z,14.47
2016-05-17T07:20:11.624Z,14.46
2016-05-17T07:21:11.626Z,14.51
2016-05-17T07:22:11.473Z,14.54
2016-05-17T07:23:11.460Z,14.55
2016-05-17T07:24:12.244Z,14.51
2016-05-17T07:25:12.388Z,14.64
2016-05-17T07:26:12.875Z,14.68
2016-05-17T07:27:11.878Z,14.62
2016-05-17T07:28:12.052Z,14.77
2016-05-17T07:29:11.617Z,14.73
2016-05-17T07:31:11.450Z,14.84
2016-05-17T07:32:12.516Z,15.06
2016-05-17T07:33:26.459Z,15.23
2016-05-17T07:34:12.678Z,15.23
2016-05-17T07:35:11.617Z,15.27
2016-05-17T07:36:11.620Z,15.32
2016-05-17T07:37:11.561Z,15.23
2016-05-17T07:38:12.172Z,15.23
2016-05-17T07:40:25.774Z,14.98
2016-05-17T07:41:26.527Z,14.86
2016-05-17T07:42:12.105Z,14.94
2016-05-17T07:43:11.796Z,15.06
2016-05-17T07:44:11.610Z,15.36
2016-05-17T07:45:11.597Z,15.53
2016-05-17T07:46:11.599Z,15.71
2016-05-17T07:47:11.603Z,15.9
2016-05-17T07:48:11.606Z,16.08
2016-05-17T07:49:11.608Z,16.11
2016-05-17T07:50:11.611Z,16.33
2016-05-17T07:51:11.598Z,16.45
2016-05-17T07:52:11.460Z,16.63
2016-05-17T07:53:11.604Z,16.71
2016-05-17T07:54:11.606Z,16.86
2016-05-17T07:55:11.593Z,17.11
2016-05-17T07:56:11.595Z,17.15
2016-05-17T07:57:11.599Z,17.38
2016-05-17T07:58:11.601Z,17.43
2016-05-17T07:59:11.604Z,17.4
2016-05-17T08:00:11.451Z,17.31
2016-05-17T08:01:11.609Z,17.21
2016-05-17T08:02:11.612Z,17.03
2016-05-17T08:03:11.600Z,16.82
2016-05-17T08:04:11.602Z,16.61
2016-05-17T08:05:11.620Z,16.5
2016-05-17T08:06:11.607Z,16.34
2016-05-17T08:07:11.611Z,16.34
2016-05-17T08:08:11.613Z,16.3
2016-05-17T08:09:11.599Z,16.31
2016-05-17T08:10:11.478Z,16.3
2016-05-17T08:11:11.449Z,16.3
2016-05-17T08:12:11.608Z,16.23
2016-05-17T08:13:11.611Z,16.39
2016-05-17T08:14:11.613Z,16.5
2016-05-17T08:15:11.460Z,16.66
2016-05-17T08:16:11.618Z,16.71
2016-05-17T08:17:11.605Z,16.73
2016-05-17T08:18:11.624Z,16.81
2016-05-17T08:19:11.626Z,16.96
2016-05-17T08:20:11.457Z,17.15
2016-05-17T08:21:11.648Z,17.31
2016-05-17T08:22:11.415Z,17.46
2016-05-17T08:23:11.622Z,17.63
2016-05-17T08:24:11.624Z,17.9
2016-05-17T08:25:11.612Z,18.11
2016-05-17T08:26:11.457Z,18.23
2016-05-17T08:27:11.867Z,18.41
2016-05-17T08:28:11.463Z,18.42
2016-05-17T08:29:11.622Z,18.58
2016-05-17T08:30:11.625Z,18.57
2016-05-17T08:31:11.471Z,18.69
2016-05-17T08:32:11.631Z,18.75
2016-05-17T08:33:11.633Z,18.85
2016-05-17T08:34:11.683Z,18.91
2016-05-17T08:35:11.482Z,18.82
2016-05-17T08:36:11.642Z,18.82
2016-05-17T08:37:12.425Z,18.69
2016-05-17T08:38:11.647Z,18.63
2016-05-17T08:39:11.650Z,18.45
2016-05-17T08:40:11.652Z,18.25
2016-05-17T08:41:11.655Z,18.08
2016-05-17T08:43:12.441Z,17.87
2016-05-17T08:44:12.960Z,17.81
2016-05-17T08:45:12.383Z,17.59
2016-05-17T08:46:11.668Z,17.63
2016-05-17T08:47:11.671Z,17.49
2016-05-17T08:48:11.783Z,17.41
2016-05-17T08:49:13.269Z,17.38
2016-05-17T08:50:12.366Z,17.36
2016-05-17T08:51:12.603Z,17.18
2016-05-17T08:52:12.231Z,16.89
2016-05-17T08:53:13.015Z,16.76
2016-05-17T08:54:13.158Z,16.68
2016-05-17T08:55:12.615Z,16.57
2016-05-17T08:56:11.788Z,16.58
2016-05-17T08:57:12.088Z,16.45
2016-05-17T08:58:12.326Z,16.31
2016-05-17T08:59:12.281Z,16.07
2016-05-17T09:00:11.690Z,16.08
2016-05-17T09:01:12.131Z,16.23
2016-05-17T09:02:12.289Z,16.21
2016-05-17T09:03:11.573Z,16.46
2016-05-17T09:04:11.528Z,16.52
2016-05-17T09:05:11.687Z,16.64
2016-05-17T09:06:11.690Z,16.76
2016-05-17T09:07:11.692Z,16.91
2016-05-17T09:08:11.524Z,17.03
2016-05-17T09:09:11.698Z,17.11
2016-05-17T09:10:11.530Z,17.11
2016-05-17T09:11:11.704Z,17.23
2016-05-17T09:12:11.535Z,17.22
2016-05-17T09:13:11.709Z,17.33
2016-05-17T09:14:11.540Z,17.37
2016-05-17T09:15:11.700Z,17.58
2016-05-17T09:16:11.717Z,17.75
2016-05-17T09:17:11.689Z,17.84
2016-05-17T09:18:11.707Z,17.92
2016-05-17T09:19:11.694Z,17.92
2016-05-17T09:20:11.696Z,17.9
2016-05-17T09:21:11.543Z,17.87
2016-05-17T09:22:12.327Z,17.89
2016-05-17T09:23:11.705Z,17.59
2016-05-17T09:24:11.536Z,17.55
2016-05-17T09:25:11.695Z,17.41
2016-05-17T09:26:11.713Z,17.28
2016-05-17T09:27:11.701Z,17.12
2016-05-17T09:28:11.703Z,17.18
2016-05-17T09:29:11.549Z,17.04
2016-05-17T09:30:11.709Z,16.94
2016-05-17T09:31:11.711Z,16.93
2016-05-17T09:32:11.714Z,16.7
2016-05-17T09:33:11.560Z,16.53
2016-05-17T09:34:11.704Z,16.5
2016-05-17T09:35:11.565Z,16.45
2016-05-17T09:36:11.553Z,16.34
2016-05-17T09:37:11.712Z,16.24
2016-05-17T09:38:11.573Z,16.21
2016-05-17T09:39:11.717Z,16.15
2016-05-17T09:40:11.704Z,16.21
2016-05-17T09:41:11.706Z,16.27
2016-05-17T09:42:11.569Z,16.2
2016-05-17T09:43:11.712Z,16.15
2016-05-17T09:44:11.714Z,16
2016-05-17T09:45:11.717Z,15.96
2016-05-17T09:46:11.719Z,15.69
2016-05-17T09:47:11.722Z,15.53
2016-05-17T09:48:11.710Z,15.41
2016-05-17T09:49:11.727Z,15.49
2016-05-17T09:50:11.715Z,15.17
2016-05-17T09:51:11.733Z,15.01
2016-05-17T09:52:11.736Z,14.94
2016-05-17T09:53:11.724Z,14.98
2016-05-17T09:54:11.555Z,14.94
2016-05-17T09:55:11.556Z,15.07
2016-05-17T09:56:11.716Z,15.19
2016-05-17T09:57:11.719Z,15.28
2016-05-17T09:58:11.705Z,15.43
2016-05-17T09:59:11.708Z,15.53
2016-05-17T10:00:11.726Z,15.75
2016-05-17T10:01:11.854Z,15.93
2016-05-17T10:02:11.873Z,16.12
2016-05-17T10:03:11.703Z,16.25
2016-05-17T10:04:11.893Z,16.39
2016-05-17T10:05:11.928Z,16.48
2016-05-17T10:06:11.695Z,16.49
2016-05-17T10:07:12.104Z,16.52
2016-05-17T10:08:25.873Z,16.53
2016-05-17T10:09:12.048Z,16.39
2016-05-17T10:10:12.894Z,16.38
2016-05-17T10:11:13.162Z,16.43
2016-05-17T10:12:13.430Z,16.34
2016-05-17T10:13:12.934Z,16.33
2016-05-17T10:14:11.623Z,16.24
2016-05-17T10:15:12.705Z,16.34
2016-05-17T10:16:11.942Z,16.27
2016-05-17T10:17:11.694Z,16.25
2016-05-17T10:18:13.213Z,16.39
2016-05-17T10:19:11.544Z,16.43
2016-05-17T10:20:11.749Z,16.52
2016-05-17T10:21:11.705Z,16.68
2016-05-17T10:22:11.864Z,16.81
2016-05-17T10:23:11.710Z,16.88
2016-05-17T10:24:11.900Z,17
2016-05-17T10:25:11.699Z,17.14
2016-05-17T10:26:11.703Z,17.07
2016-05-17T10:27:11.705Z,17.3
2016-05-17T10:28:11.707Z,17.36
2016-05-17T10:29:11.555Z,17.48
2016-05-17T10:30:11.541Z,17.56
2016-05-17T10:31:11.543Z,17.71
2016-05-17T10:32:11.704Z,17.84
2016-05-17T10:33:11.706Z,17.89
2016-05-17T10:34:11.709Z,18.1
2016-05-17T10:35:11.712Z,18.17
2016-05-17T10:36:11.729Z,18.17
2016-05-17T10:37:12.013Z,18.23
2016-05-17T10:38:11.563Z,18.2
2016-05-17T10:39:11.706Z,18.1
2016-05-17T10:40:11.568Z,18.11
2016-05-17T10:41:11.712Z,18.08
2016-05-17T10:42:11.731Z,18.07
2016-05-17T10:43:11.748Z,18.15
2016-05-17T10:44:11.720Z,18.12
2016-05-17T10:45:11.723Z,18.11
2016-05-17T10:46:11.569Z,18.21
2016-05-17T10:47:11.572Z,18.14
2016-05-17T10:48:11.747Z,18.17
2016-05-17T10:49:11.733Z,18.08
2016-05-17T10:50:11.736Z,18.11
2016-05-17T10:51:11.583Z,18.11
2016-05-17T10:52:11.586Z,18.08
2016-05-17T10:53:11.744Z,17.99
2016-05-17T10:54:11.747Z,18.05
2016-05-17T10:55:11.593Z,18.11
2016-05-17T10:56:11.752Z,18.2
2016-05-17T10:57:11.599Z,18.18
2016-05-17T10:58:11.757Z,18.2
2016-05-17T10:59:11.744Z,18.3
2016-05-17T11:00:11.747Z,18.3
2016-05-17T11:01:11.750Z,18.41
2016-05-17T11:02:11.752Z,18.48
2016-05-17T11:03:11.755Z,18.5
2016-05-17T11:04:11.757Z,18.6
2016-05-17T11:05:11.745Z,18.67
2016-05-17T11:06:11.763Z,18.8
2016-05-17T11:07:11.890Z,18.76
2016-05-17T11:08:11.597Z,18.92
2016-05-17T11:09:11.771Z,19.06
2016-05-17T11:10:11.618Z,19.13
2016-05-17T11:11:11.761Z,19.29
2016-05-17T11:12:11.779Z,19.48
2016-05-17T11:13:11.766Z,19.56
2016-05-17T11:14:11.769Z,19.74
2016-05-17T11:15:11.616Z,19.95
2016-05-17T11:16:11.774Z,20.03
2016-05-17T11:17:11.777Z,20.18
2016-05-17T11:18:11.780Z,20.26
2016-05-17T11:19:11.798Z,20.24
2016-05-17T11:20:12.583Z,20.24
2016-05-17T11:21:13.008Z,20.48
2016-05-17T11:22:12.071Z,20.66
2016-05-17T11:23:11.652Z,20.7
2016-05-17T11:24:11.812Z,20.7
2016-05-17T11:25:11.908Z,20.73
2016-05-17T11:30:14.468Z,19.94
2016-05-17T11:32:12.724Z,19.56
2016-05-17T11:36:12.860Z,17.63
2016-05-17T11:39:11.868Z,16.3
2016-05-17T11:40:12.151Z,15.96
2016-05-17T11:41:11.857Z,15.86
2016-05-17T11:43:11.784Z,15.78
2016-05-17T11:44:11.865Z,15.78
2016-05-17T11:45:11.867Z,15.75
2016-05-17T11:46:11.870Z,15.82
2016-05-17T11:47:11.873Z,15.84
2016-05-17T11:48:11.876Z,16.02
2016-05-17T11:49:11.863Z,16.15
2016-05-17T11:50:11.881Z,16.35
2016-05-17T11:51:11.869Z,16.58
2016-05-17T11:52:11.730Z,16.75
2016-05-17T11:53:11.874Z,16.89
2016-05-17T11:54:11.877Z,17.15
2016-05-17T11:55:11.879Z,17.26
2016-05-17T11:56:11.866Z,17.49
2016-05-17T11:57:11.557Z,17.66
2016-05-17T11:58:11.902Z,17.9
2016-05-17T11:59:11.906Z,17.93
2016-05-17T12:00:11.878Z,18.02
2016-05-17T12:01:11.895Z,17.99
2016-05-17T12:02:11.882Z,17.96
2016-05-17T12:03:11.729Z,18.08
2016-05-17T12:04:11.888Z,18.29
2016-05-17T12:05:11.734Z,18.45
2016-05-17T12:06:11.738Z,18.54
2016-05-17T12:07:11.896Z,18.75
2016-05-17T12:08:11.898Z,18.91
2016-05-17T12:09:11.901Z,19.14
2016-05-17T12:10:11.889Z,19.39
2016-05-17T12:11:11.891Z,19.61
2016-05-17T12:12:11.753Z,19.71
2016-05-17T12:13:11.912Z,19.66
2016-05-17T12:14:11.759Z,19.69
2016-05-17T12:15:11.902Z,19.87
2016-05-17T12:16:11.748Z,19.66
2016-05-17T12:17:11.908Z,19.8
2016-05-17T12:18:11.769Z,19.78
2016-05-17T12:19:11.928Z,19.77
2016-05-17T12:20:11.916Z,19.81
2016-05-17T12:21:11.950Z,19.92
2016-05-17T12:22:11.952Z,19.92
2016-05-17T12:23:11.783Z,20.03
2016-05-17T12:24:11.941Z,20.08
2016-05-17T12:25:11.944Z,20.23
2016-05-17T12:26:11.947Z,20.26
2016-05-17T12:27:11.794Z,20.21
2016-05-17T12:28:11.952Z,20.26
2016-05-17T12:29:11.799Z,20.28
2016-05-17T12:30:11.802Z,20.29
2016-05-17T12:31:11.961Z,20.24
2016-05-17T12:32:11.963Z,20.31
2016-05-17T12:33:11.966Z,20.29
2016-05-17T12:34:11.813Z,20.28
2016-05-17T12:35:11.815Z,20.23
2016-05-17T12:36:11.990Z,20.13
2016-05-17T12:37:12.007Z,20.16
2016-05-17T12:38:11.995Z,20.13
2016-05-17T12:39:12.279Z,20.21
2016-05-17T12:40:13.438Z,20.31
2016-05-17T12:41:11.987Z,20.38
2016-05-17T12:42:11.850Z,20.55
2016-05-17T12:43:12.509Z,20.57
2016-05-17T12:44:12.012Z,20.38
2016-05-17T12:45:12.764Z,20.28
2016-05-17T12:46:12.564Z,20.24
2016-05-17T12:47:12.020Z,20.28
2016-05-17T12:48:27.631Z,20.32
2016-05-17T12:49:12.649Z,20.38
2016-05-17T12:50:12.121Z,20.42
2016-05-17T12:51:12.264Z,20.58
2016-05-17T12:52:13.080Z,20.59
2016-05-17T12:53:12.457Z,20.57
2016-05-17T12:54:12.616Z,20.55
2016-05-17T12:55:26.713Z,20.36
2016-05-17T12:56:12.216Z,20.33
2016-05-17T12:57:12.062Z,20.26
2016-05-17T12:58:12.455Z,20.38
2016-05-17T12:59:12.066Z,20.39
2016-05-17T13:00:12.069Z,20.36
2016-05-17T13:01:12.072Z,20.38
2016-05-17T13:02:12.075Z,20.5
2016-05-17T13:03:11.922Z,20.35
2016-05-17T13:04:12.080Z,20.2
2016-05-17T13:05:11.927Z,20.14
2016-05-17T13:06:12.086Z,19.98
2016-05-17T13:07:12.182Z,19.87
2016-05-17T13:08:12.091Z,19.83
2016-05-17T13:09:12.109Z,19.84
2016-05-17T13:10:12.112Z,19.74
2016-05-17T13:11:12.099Z,19.69
2016-05-17T13:12:11.962Z,19.62
2016-05-17T13:13:11.948Z,19.46
2016-05-17T13:14:11.951Z,19.21
2016-05-17T13:15:12.110Z,19.07
2016-05-17T13:16:12.129Z,18.84
2016-05-17T13:17:12.132Z,18.55
2016-05-17T13:18:12.118Z,18.48
2016-05-17T13:19:12.136Z,18.29
2016-05-17T13:20:12.123Z,18.02
2016-05-17T13:21:12.142Z,17.72